sensor_id;sensor_type;location;lat;lon;timestamp;temperature;humidity
14699;DHT22;7439;50.804;4.602;2022-07-12T00:02:10;13.90;99.90
14699;DHT22;7439;50.804;4.602;2022-07-12T00:04:37;13.90;99.90
14699;DHT22;7439;50.804;4.602;2022-07-12T00:07:04;13.90;99.90
14699;DHT22;7439;50.804;4.602;2022-07-12T00:09:32;13.80;99.90
14699;DHT22;7439;50.804;4.602;2022-07-12T00:11:59;13.80;99.90
14699;DHT22;7439;50.804;4.602;2022-07-12T00:14:26;13.60;99.90
14699;DHT22;7439;50.804;4.602;2022-07-12T00:16:54;13.70;99.90
14699;DHT22;7439;50.804;4.602;2022-07-12T00:19:21;13.60;99.90
14699;DHT22;7439;50.804;4.602;2022-07-12T00:21:48;13.60;99.90
14699;DHT22;7439;50.804;4.602;2022-07-12T00:24:16;13.50;99.90
14699;DHT22;7439;50.804;4.602;2022-07-12T00:26:43;13.50;99.90
14699;DHT22;7439;50.804;4.602;2022-07-12T00:29:09;13.50;99.90
14699;DHT22;7439;50.804;4.602;2022-07-12T00:31:37;13.50;99.90
14699;DHT22;7439;50.804;4.602;2022-07-12T00:34:05;13.40;99.90
14699;DHT22;7439;50.804;4.602;2022-07-12T00:36:32;13.40;1.00
14699;DHT22;7439;50.804;4.602;2022-07-12T00:38:59;13.30;99.90
14699;DHT22;7439;50.804;4.602;2022-07-12T00:41:26;13.20;99.90
14699;DHT22;7439;50.804;4.602;2022-07-12T00:43:53;13.10;1.00
14699;DHT22;7439;50.804;4.602;2022-07-12T00:46:22;13.10;1.00
14699;DHT22;7439;50.804;4.602;2022-07-12T00:48:50;13.00;1.00
14699;DHT22;7439;50.804;4.602;2022-07-12T00:51:19;13.00;1.00
14699;DHT22;7439;50.804;4.602;2022-07-12T00:53:46;13.00;1.00
14699;DHT22;7439;50.804;4.602;2022-07-12T00:56:13;12.90;1.00
14699;DHT22;7439;50.804;4.602;2022-07-12T00:58:41;12.80;1.00
14699;DHT22;7439;50.804;4.602;2022-07-12T01:01:08;12.80;1.00
14699;DHT22;7439;50.804;4.602;2022-07-12T01:03:36;12.80;1.00
14699;DHT22;7439;50.804;4.602;2022-07-12T01:06:04;12.80;1.00
14699;DHT22;7439;50.804;4.602;2022-07-12T01:08:33;12.80;1.00
14699;DHT22;7439;50.804;4.602;2022-07-12T01:11:01;12.70;1.00
14699;DHT22;7439;50.804;4.602;2022-07-12T01:13:29;12.70;1.00
14699;DHT22;7439;50.804;4.602;2022-07-12T01:15:56;12.70;1.00
14699;DHT22;7439;50.804;4.602;2022-07-12T01:18:24;12.60;1.00
14699;DHT22;7439;50.804;4.602;2022-07-12T01:20:52;12.50;1.00
14699;DHT22;7439;50.804;4.602;2022-07-12T01:23:22;12.60;1.00
14699;DHT22;7439;50.804;4.602;2022-07-12T01:25:50;12.60;1.00
14699;DHT22;7439;50.804;4.602;2022-07-12T01:28:17;12.50;1.00
14699;DHT22;7439;50.804;4.602;2022-07-12T01:30:44;12.50;1.00
14699;DHT22;7439;50.804;4.602;2022-07-12T01:33:11;12.40;1.00
14699;DHT22;7439;50.804;4.602;2022-07-12T01:35:38;12.40;1.00
14699;DHT22;7439;50.804;4.602;2022-07-12T01:38:06;12.40;1.00
14699;DHT22;7439;50.804;4.602;2022-07-12T01:40:34;12.30;1.00
14699;DHT22;7439;50.804;4.602;2022-07-12T01:43:02;12.40;1.00
14699;DHT22;7439;50.804;4.602;2022-07-12T01:45:29;12.40;1.00
14699;DHT22;7439;50.804;4.602;2022-07-12T01:47:57;12.30;1.00
14699;DHT22;7439;50.804;4.602;2022-07-12T01:50:25;12.20;1.00
14699;DHT22;7439;50.804;4.602;2022-07-12T01:52:52;12.20;1.00
14699;DHT22;7439;50.804;4.602;2022-07-12T01:55:19;12.20;1.00
14699;DHT22;7439;50.804;4.602;2022-07-12T01:57:48;12.10;1.00
14699;DHT22;7439;50.804;4.602;2022-07-12T02:00:16;12.00;1.00
14699;DHT22;7439;50.804;4.602;2022-07-12T02:02:45;12.00;1.00
14699;DHT22;7439;50.804;4.602;2022-07-12T02:05:13;12.00;1.00
14699;DHT22;7439;50.804;4.602;2022-07-12T02:07:40;11.90;1.00
14699;DHT22;7439;50.804;4.602;2022-07-12T02:10:08;11.90;1.00
14699;DHT22;7439;50.804;4.602;2022-07-12T02:12:35;11.90;1.00
14699;DHT22;7439;50.804;4.602;2022-07-12T02:15:06;11.90;1.00
14699;DHT22;7439;50.804;4.602;2022-07-12T02:17:33;11.90;1.00
14699;DHT22;7439;50.804;4.602;2022-07-12T02:20:00;11.80;1.00
14699;DHT22;7439;50.804;4.602;2022-07-12T02:22:27;11.70;1.00
14699;DHT22;7439;50.804;4.602;2022-07-12T02:24:54;11.70;1.00
14699;DHT22;7439;50.804;4.602;2022-07-12T02:27:21;11.70;1.00
14699;DHT22;7439;50.804;4.602;2022-07-12T02:29:48;11.70;1.00
14699;DHT22;7439;50.804;4.602;2022-07-12T02:32:17;11.70;1.00
14699;DHT22;7439;50.804;4.602;2022-07-12T02:34:44;11.70;1.00
14699;DHT22;7439;50.804;4.602;2022-07-12T02:37:12;11.60;1.00
14699;DHT22;7439;50.804;4.602;2022-07-12T02:39:40;11.50;1.00
14699;DHT22;7439;50.804;4.602;2022-07-12T02:42:07;11.50;1.00
14699;DHT22;7439;50.804;4.602;2022-07-12T02:44:34;11.70;5.20
14699;DHT22;7439;50.804;4.602;2022-07-12T02:47:01;11.60;1.00
14699;DHT22;7439;50.804;4.602;2022-07-12T02:49:29;11.50;1.00
14699;DHT22;7439;50.804;4.602;2022-07-12T02:51:56;11.40;1.00
14699;DHT22;7439;50.804;4.602;2022-07-12T02:54:23;11.30;1.00
14699;DHT22;7439;50.804;4.602;2022-07-12T02:56:50;11.30;1.00
14699;DHT22;7439;50.804;4.602;2022-07-12T02:59:18;11.30;1.00
14699;DHT22;7439;50.804;4.602;2022-07-12T03:01:44;11.20;1.00
14699;DHT22;7439;50.804;4.602;2022-07-12T03:04:12;11.20;1.00
14699;DHT22;7439;50.804;4.602;2022-07-12T03:06:40;11.20;1.00
14699;DHT22;7439;50.804;4.602;2022-07-12T03:09:07;11.20;1.00
14699;DHT22;7439;50.804;4.602;2022-07-12T03:11:34;11.10;1.00
14699;DHT22;7439;50.804;4.602;2022-07-12T03:14:01;11.10;1.00
14699;DHT22;7439;50.804;4.602;2022-07-12T03:16:28;11.20;1.00
14699;DHT22;7439;50.804;4.602;2022-07-12T03:18:55;11.10;1.00
14699;DHT22;7439;50.804;4.602;2022-07-12T03:21:22;11.10;1.00
14699;DHT22;7439;50.804;4.602;2022-07-12T03:23:51;11.00;1.00
14699;DHT22;7439;50.804;4.602;2022-07-12T03:26:18;11.00;1.00
14699;DHT22;7439;50.804;4.602;2022-07-12T03:28:45;10.90;1.00
14699;DHT22;7439;50.804;4.602;2022-07-12T03:31:12;10.90;1.00
14699;DHT22;7439;50.804;4.602;2022-07-12T03:33:39;10.90;1.00
14699;DHT22;7439;50.804;4.602;2022-07-12T03:36:07;10.90;1.00
14699;DHT22;7439;50.804;4.602;2022-07-12T03:38:34;10.90;2.60
14699;DHT22;7439;50.804;4.602;2022-07-12T03:41:04;10.90;4.70
14699;DHT22;7439;50.804;4.602;2022-07-12T03:43:31;10.80;18.00
14699;DHT22;7439;50.804;4.602;2022-07-12T03:45:58;10.80;27.40
14699;DHT22;7439;50.804;4.602;2022-07-12T03:48:25;10.80;43.70
14699;DHT22;7439;50.804;4.602;2022-07-12T03:50:52;10.70;55.60
14699;DHT22;7439;50.804;4.602;2022-07-12T03:53:19;10.70;99.90
14699;DHT22;7439;50.804;4.602;2022-07-12T03:55:46;10.70;99.90
14699;DHT22;7439;50.804;4.602;2022-07-12T03:58:14;10.70;99.90
14699;DHT22;7439;50.804;4.602;2022-07-12T04:00:42;10.70;99.90
14699;DHT22;7439;50.804;4.602;2022-07-12T04:03:09;10.70;99.90
14699;DHT22;7439;50.804;4.602;2022-07-12T04:05:37;10.70;99.90
14699;DHT22;7439;50.804;4.602;2022-07-12T04:08:04;10.70;99.90
14699;DHT22;7439;50.804;4.602;2022-07-12T04:10:32;10.70;99.90
14699;DHT22;7439;50.804;4.602;2022-07-12T04:12:59;10.70;99.90
14699;DHT22;7439;50.804;4.602;2022-07-12T04:15:27;10.80;99.90
14699;DHT22;7439;50.804;4.602;2022-07-12T04:17:54;10.70;99.90
14699;DHT22;7439;50.804;4.602;2022-07-12T04:20:21;10.70;99.90
14699;DHT22;7439;50.804;4.602;2022-07-12T04:22:48;10.80;99.90
14699;DHT22;7439;50.804;4.602;2022-07-12T04:25:15;10.90;99.90
14699;DHT22;7439;50.804;4.602;2022-07-12T04:27:42;10.90;99.90
14699;DHT22;7439;50.804;4.602;2022-07-12T04:30:10;10.90;99.90
14699;DHT22;7439;50.804;4.602;2022-07-12T04:32:38;10.90;99.90
14699;DHT22;7439;50.804;4.602;2022-07-12T04:35:06;11.10;99.90
14699;DHT22;7439;50.804;4.602;2022-07-12T04:37:33;11.10;99.90
14699;DHT22;7439;50.804;4.602;2022-07-12T04:40:00;11.10;99.90
14699;DHT22;7439;50.804;4.602;2022-07-12T04:42:27;11.10;99.90
14699;DHT22;7439;50.804;4.602;2022-07-12T04:44:54;11.10;99.90
14699;DHT22;7439;50.804;4.602;2022-07-12T04:47:21;11.10;99.90
14699;DHT22;7439;50.804;4.602;2022-07-12T04:49:49;11.20;99.90
14699;DHT22;7439;50.804;4.602;2022-07-12T04:52:16;11.30;1.00
14699;DHT22;7439;50.804;4.602;2022-07-12T04:54:43;11.40;1.00
14699;DHT22;7439;50.804;4.602;2022-07-12T04:57:10;11.50;1.00
14699;DHT22;7439;50.804;4.602;2022-07-12T04:59:37;11.70;1.00
14699;DHT22;7439;50.804;4.602;2022-07-12T05:02:04;11.80;1.00
14699;DHT22;7439;50.804;4.602;2022-07-12T05:04:32;12.00;1.00
14699;DHT22;7439;50.804;4.602;2022-07-12T05:07:01;12.10;1.00
14699;DHT22;7439;50.804;4.602;2022-07-12T05:09:28;12.30;1.00
14699;DHT22;7439;50.804;4.602;2022-07-12T05:11:55;12.50;1.00
14699;DHT22;7439;50.804;4.602;2022-07-12T05:14:22;12.70;1.00
14699;DHT22;7439;50.804;4.602;2022-07-12T05:16:49;12.90;1.00
14699;DHT22;7439;50.804;4.602;2022-07-12T05:19:16;13.00;1.00
14699;DHT22;7439;50.804;4.602;2022-07-12T05:21:44;13.10;1.00
14699;DHT22;7439;50.804;4.602;2022-07-12T05:24:13;13.20;99.90
14699;DHT22;7439;50.804;4.602;2022-07-12T05:26:40;13.30;99.90
14699;DHT22;7439;50.804;4.602;2022-07-12T05:29:07;13.40;99.90
14699;DHT22;7439;50.804;4.602;2022-07-12T05:31:34;13.50;99.90
14699;DHT22;7439;50.804;4.602;2022-07-12T05:34:01;13.60;99.90
14699;DHT22;7439;50.804;4.602;2022-07-12T05:36:28;13.70;37.40
14699;DHT22;7439;50.804;4.602;2022-07-12T05:38:56;13.70;1.00
14699;DHT22;7439;50.804;4.602;2022-07-12T05:41:24;13.80;1.00
14699;DHT22;7439;50.804;4.602;2022-07-12T05:43:51;14.00;1.00
14699;DHT22;7439;50.804;4.602;2022-07-12T05:46:18;14.10;1.00
14699;DHT22;7439;50.804;4.602;2022-07-12T05:48:45;14.20;1.00
14699;DHT22;7439;50.804;4.602;2022-07-12T05:51:12;14.20;1.00
14699;DHT22;7439;50.804;4.602;2022-07-12T05:53:57;14.40;1.00
14699;DHT22;7439;50.804;4.602;2022-07-12T05:56:25;14.50;1.00
14699;DHT22;7439;50.804;4.602;2022-07-12T05:58:52;14.70;1.00
14699;DHT22;7439;50.804;4.602;2022-07-12T06:01:19;14.70;1.00
14699;DHT22;7439;50.804;4.602;2022-07-12T06:03:46;14.90;99.90
14699;DHT22;7439;50.804;4.602;2022-07-12T06:06:13;15.00;99.90
14699;DHT22;7439;50.804;4.602;2022-07-12T06:08:40;15.10;99.90
14699;DHT22;7439;50.804;4.602;2022-07-12T06:11:07;15.10;99.90
14699;DHT22;7439;50.804;4.602;2022-07-12T06:13:36;15.30;99.90
14699;DHT22;7439;50.804;4.602;2022-07-12T06:16:03;15.40;99.90
14699;DHT22;7439;50.804;4.602;2022-07-12T06:18:31;15.60;99.90
14699;DHT22;7439;50.804;4.602;2022-07-12T06:20:58;15.70;99.90
14699;DHT22;7439;50.804;4.602;2022-07-12T06:23:25;15.80;99.90
14699;DHT22;7439;50.804;4.602;2022-07-12T06:25:52;16.00;90.80
14699;DHT22;7439;50.804;4.602;2022-07-12T06:28:19;16.20;20.90
14699;DHT22;7439;50.804;4.602;2022-07-12T06:30:48;16.40;1.00
14699;DHT22;7439;50.804;4.602;2022-07-12T06:33:15;16.70;1.00
14699;DHT22;7439;50.804;4.602;2022-07-12T06:35:42;16.80;99.90
14699;DHT22;7439;50.804;4.602;2022-07-12T06:38:09;17.10;99.90
14699;DHT22;7439;50.804;4.602;2022-07-12T06:40:36;17.30;14.80
14699;DHT22;7439;50.804;4.602;2022-07-12T06:43:08;17.60;1.00
14699;DHT22;7439;50.804;4.602;2022-07-12T06:45:35;17.70;1.00
14699;DHT22;7439;50.804;4.602;2022-07-12T06:48:04;17.90;1.00
14699;DHT22;7439;50.804;4.602;2022-07-12T06:50:32;18.10;99.90
14699;DHT22;7439;50.804;4.602;2022-07-12T06:52:59;18.20;99.90
14699;DHT22;7439;50.804;4.602;2022-07-12T06:55:28;18.20;99.90
14699;DHT22;7439;50.804;4.602;2022-07-12T06:57:55;18.30;99.90
14699;DHT22;7439;50.804;4.602;2022-07-12T07:00:22;18.50;1.00
14699;DHT22;7439;50.804;4.602;2022-07-12T07:02:49;18.60;1.00
14699;DHT22;7439;50.804;4.602;2022-07-12T07:05:18;18.70;1.00
14699;DHT22;7439;50.804;4.602;2022-07-12T07:07:45;18.90;1.00
14699;DHT22;7439;50.804;4.602;2022-07-12T07:10:12;19.00;1.00
14699;DHT22;7439;50.804;4.602;2022-07-12T07:12:39;19.10;1.00
14699;DHT22;7439;50.804;4.602;2022-07-12T07:15:07;19.30;99.90
14699;DHT22;7439;50.804;4.602;2022-07-12T07:17:34;19.40;99.90
14699;DHT22;7439;50.804;4.602;2022-07-12T07:20:02;19.40;99.90
14699;DHT22;7439;50.804;4.602;2022-07-12T07:22:32;19.70;99.90
14699;DHT22;7439;50.804;4.602;2022-07-12T07:24:59;19.80;99.90
14699;DHT22;7439;50.804;4.602;2022-07-12T07:27:26;19.90;99.90
14699;DHT22;7439;50.804;4.602;2022-07-12T07:29:53;20.00;99.90
14699;DHT22;7439;50.804;4.602;2022-07-12T07:32:38;20.00;99.90
14699;DHT22;7439;50.804;4.602;2022-07-12T07:35:05;20.10;99.90
14699;DHT22;7439;50.804;4.602;2022-07-12T07:37:34;20.30;99.90
14699;DHT22;7439;50.804;4.602;2022-07-12T07:40:01;20.50;99.90
14699;DHT22;7439;50.804;4.602;2022-07-12T07:42:28;20.60;99.90
14699;DHT22;7439;50.804;4.602;2022-07-12T07:44:55;20.80;99.90
14699;DHT22;7439;50.804;4.602;2022-07-12T07:47:22;20.80;99.90
14699;DHT22;7439;50.804;4.602;2022-07-12T07:49:49;20.80;99.90
14699;DHT22;7439;50.804;4.602;2022-07-12T07:52:16;21.10;99.90
14699;DHT22;7439;50.804;4.602;2022-07-12T07:54:45;21.40;99.90
14699;DHT22;7439;50.804;4.602;2022-07-12T07:57:12;21.60;80.20
14699;DHT22;7439;50.804;4.602;2022-07-12T07:59:39;21.70;47.70
14699;DHT22;7439;50.804;4.602;2022-07-12T08:02:06;22.00;75.80
14699;DHT22;7439;50.804;4.602;2022-07-12T08:04:33;22.00;32.70
14699;DHT22;7439;50.804;4.602;2022-07-12T08:07:00;22.00;57.40
14699;DHT22;7439;50.804;4.602;2022-07-12T08:09:27;22.10;96.30
14699;DHT22;7439;50.804;4.602;2022-07-12T08:11:55;22.40;99.90
14699;DHT22;7439;50.804;4.602;2022-07-12T08:14:22;22.40;5.10
14699;DHT22;7439;50.804;4.602;2022-07-12T08:16:49;22.60;1.00
14699;DHT22;7439;50.804;4.602;2022-07-12T08:19:16;22.70;1.00
14699;DHT22;7439;50.804;4.602;2022-07-12T08:21:43;22.80;1.00
14699;DHT22;7439;50.804;4.602;2022-07-12T08:24:11;23.20;1.00
14699;DHT22;7439;50.804;4.602;2022-07-12T08:26:38;23.30;1.00
14699;DHT22;7439;50.804;4.602;2022-07-12T08:29:07;23.40;1.00
14699;DHT22;7439;50.804;4.602;2022-07-12T08:31:34;23.40;1.00
14699;DHT22;7439;50.804;4.602;2022-07-12T08:34:01;23.50;1.00
14699;DHT22;7439;50.804;4.602;2022-07-12T08:36:28;23.30;1.00
14699;DHT22;7439;50.804;4.602;2022-07-12T08:38:58;23.30;1.00
14699;DHT22;7439;50.804;4.602;2022-07-12T08:41:25;23.40;1.00
14699;DHT22;7439;50.804;4.602;2022-07-12T08:43:52;23.70;1.00
14699;DHT22;7439;50.804;4.602;2022-07-12T08:46:21;23.70;1.00
14699;DHT22;7439;50.804;4.602;2022-07-12T08:48:48;23.90;1.00
14699;DHT22;7439;50.804;4.602;2022-07-12T08:51:18;24.10;1.00
14699;DHT22;7439;50.804;4.602;2022-07-12T08:53:46;24.30;1.00
14699;DHT22;7439;50.804;4.602;2022-07-12T08:56:31;24.80;1.00
14699;DHT22;7439;50.804;4.602;2022-07-12T08:59:14;24.90;1.00
14699;DHT22;7439;50.804;4.602;2022-07-12T09:01:45;25.00;1.00
14699;DHT22;7439;50.804;4.602;2022-07-12T09:04:14;24.70;1.00
14699;DHT22;7439;50.804;4.602;2022-07-12T09:06:41;24.50;1.00
14699;DHT22;7439;50.804;4.602;2022-07-12T09:09:09;24.30;1.00
14699;DHT22;7439;50.804;4.602;2022-07-12T09:11:37;24.60;1.00
14699;DHT22;7439;50.804;4.602;2022-07-12T09:14:05;24.90;1.00
14699;DHT22;7439;50.804;4.602;2022-07-12T09:16:33;25.60;1.00
14699;DHT22;7439;50.804;4.602;2022-07-12T09:19:23;25.80;1.00
14699;DHT22;7439;50.804;4.602;2022-07-12T09:21:51;26.00;1.00
14699;DHT22;7439;50.804;4.602;2022-07-12T09:24:24;26.20;1.00
14699;DHT22;7439;50.804;4.602;2022-07-12T09:26:54;26.60;1.00
14699;DHT22;7439;50.804;4.602;2022-07-12T09:29:23;27.20;1.00
14699;DHT22;7439;50.804;4.602;2022-07-12T09:31:51;27.90;1.00
14699;DHT22;7439;50.804;4.602;2022-07-12T09:34:38;27.60;1.00
14699;DHT22;7439;50.804;4.602;2022-07-12T09:37:23;27.80;1.00
14699;DHT22;7439;50.804;4.602;2022-07-12T09:39:51;27.80;1.00
14699;DHT22;7439;50.804;4.602;2022-07-12T09:42:19;27.90;1.00
14699;DHT22;7439;50.804;4.602;2022-07-12T09:44:46;28.40;1.00
14699;DHT22;7439;50.804;4.602;2022-07-12T09:47:14;28.90;1.00
14699;DHT22;7439;50.804;4.602;2022-07-12T09:49:43;29.00;1.00
14699;DHT22;7439;50.804;4.602;2022-07-12T09:52:12;29.00;1.00
14699;DHT22;7439;50.804;4.602;2022-07-12T09:54:42;28.60;1.00
14699;DHT22;7439;50.804;4.602;2022-07-12T09:57:16;28.90;1.00
14699;DHT22;7439;50.804;4.602;2022-07-12T09:59:47;28.50;1.00
14699;DHT22;7439;50.804;4.602;2022-07-12T10:02:15;28.70;1.00
14699;DHT22;7439;50.804;4.602;2022-07-12T10:04:46;28.60;1.00
14699;DHT22;7439;50.804;4.602;2022-07-12T10:07:14;29.40;1.00
14699;DHT22;7439;50.804;4.602;2022-07-12T10:09:45;29.00;1.00
14699;DHT22;7439;50.804;4.602;2022-07-12T10:12:15;27.90;1.00
14699;DHT22;7439;50.804;4.602;2022-07-12T10:14:44;28.10;1.00
14699;DHT22;7439;50.804;4.602;2022-07-12T10:17:11;28.50;1.00
14699;DHT22;7439;50.804;4.602;2022-07-12T10:19:39;29.00;1.00
14699;DHT22;7439;50.804;4.602;2022-07-12T10:22:19;29.90;1.00
14699;DHT22;7439;50.804;4.602;2022-07-12T10:24:53;30.30;1.00
14699;DHT22;7439;50.804;4.602;2022-07-12T10:27:33;30.80;1.00
14699;DHT22;7439;50.804;4.602;2022-07-12T10:30:20;31.80;1.00
14699;DHT22;7439;50.804;4.602;2022-07-12T10:32:49;32.10;1.00
14699;DHT22;7439;50.804;4.602;2022-07-12T10:35:19;31.00;1.00
14699;DHT22;7439;50.804;4.602;2022-07-12T10:38:16;30.80;1.00
14699;DHT22;7439;50.804;4.602;2022-07-12T10:40:46;31.20;1.00
14699;DHT22;7439;50.804;4.602;2022-07-12T10:43:15;31.40;1.00
14699;DHT22;7439;50.804;4.602;2022-07-12T10:45:43;32.10;1.00
14699;DHT22;7439;50.804;4.602;2022-07-12T10:48:22;31.80;1.00
14699;DHT22;7439;50.804;4.602;2022-07-12T10:50:56;30.80;1.00
14699;DHT22;7439;50.804;4.602;2022-07-12T10:53:28;30.90;1.00
14699;DHT22;7439;50.804;4.602;2022-07-12T10:56:15;30.70;1.00
14699;DHT22;7439;50.804;4.602;2022-07-12T10:58:45;31.00;1.00
14699;DHT22;7439;50.804;4.602;2022-07-12T11:01:14;31.40;1.00
14699;DHT22;7439;50.804;4.602;2022-07-12T11:03:43;31.70;1.00
14699;DHT22;7439;50.804;4.602;2022-07-12T11:06:11;32.10;1.00
14699;DHT22;7439;50.804;4.602;2022-07-12T11:09:04;32.10;1.00
14699;DHT22;7439;50.804;4.602;2022-07-12T11:11:34;31.50;1.00
14699;DHT22;7439;50.804;4.602;2022-07-12T11:14:02;31.50;1.00
14699;DHT22;7439;50.804;4.602;2022-07-12T11:16:30;31.50;1.00
14699;DHT22;7439;50.804;4.602;2022-07-12T11:18:57;31.00;1.00
14699;DHT22;7439;50.804;4.602;2022-07-12T11:21:24;31.10;1.00
14699;DHT22;7439;50.804;4.602;2022-07-12T11:23:51;31.80;1.00
14699;DHT22;7439;50.804;4.602;2022-07-12T11:26:21;32.70;1.00
14699;DHT22;7439;50.804;4.602;2022-07-12T11:28:48;33.40;1.00
14699;DHT22;7439;50.804;4.602;2022-07-12T11:31:17;33.70;1.00
14699;DHT22;7439;50.804;4.602;2022-07-12T11:33:45;34.20;1.00
14699;DHT22;7439;50.804;4.602;2022-07-12T11:36:13;34.20;1.00
14699;DHT22;7439;50.804;4.602;2022-07-12T11:38:42;33.70;1.00
14699;DHT22;7439;50.804;4.602;2022-07-12T11:41:11;33.90;1.00
14699;DHT22;7439;50.804;4.602;2022-07-12T11:43:40;34.20;1.00
14699;DHT22;7439;50.804;4.602;2022-07-12T11:46:08;33.20;1.00
14699;DHT22;7439;50.804;4.602;2022-07-12T11:48:36;32.80;1.00
14699;DHT22;7439;50.804;4.602;2022-07-12T11:51:05;32.40;1.00
14699;DHT22;7439;50.804;4.602;2022-07-12T11:53:33;32.20;1.00
14699;DHT22;7439;50.804;4.602;2022-07-12T11:56:02;31.40;1.00
14699;DHT22;7439;50.804;4.602;2022-07-12T11:58:29;31.80;1.00
14699;DHT22;7439;50.804;4.602;2022-07-12T12:00:59;32.80;1.00
14699;DHT22;7439;50.804;4.602;2022-07-12T12:03:26;34.60;1.00
14699;DHT22;7439;50.804;4.602;2022-07-12T12:05:55;36.00;1.00
14699;DHT22;7439;50.804;4.602;2022-07-12T12:08:22;35.50;1.00
14699;DHT22;7439;50.804;4.602;2022-07-12T12:10:54;35.10;1.00
14699;DHT22;7439;50.804;4.602;2022-07-12T12:13:22;35.50;1.00
14699;DHT22;7439;50.804;4.602;2022-07-12T12:15:50;34.50;1.00
14699;DHT22;7439;50.804;4.602;2022-07-12T12:18:28;34.70;1.00
14699;DHT22;7439;50.804;4.602;2022-07-12T12:20:59;34.00;1.00
14699;DHT22;7439;50.804;4.602;2022-07-12T12:23:26;34.90;1.00
14699;DHT22;7439;50.804;4.602;2022-07-12T12:26:12;34.40;1.00
14699;DHT22;7439;50.804;4.602;2022-07-12T12:28:47;33.90;1.00
14699;DHT22;7439;50.804;4.602;2022-07-12T12:31:15;34.40;1.00
14699;DHT22;7439;50.804;4.602;2022-07-12T12:33:45;34.10;1.00
14699;DHT22;7439;50.804;4.602;2022-07-12T12:36:18;34.60;1.00
14699;DHT22;7439;50.804;4.602;2022-07-12T12:38:47;34.40;1.00
14699;DHT22;7439;50.804;4.602;2022-07-12T12:41:14;33.50;1.00
14699;DHT22;7439;50.804;4.602;2022-07-12T12:43:42;33.60;1.00
14699;DHT22;7439;50.804;4.602;2022-07-12T12:46:09;34.50;1.00
14699;DHT22;7439;50.804;4.602;2022-07-12T12:48:36;34.90;1.00
14699;DHT22;7439;50.804;4.602;2022-07-12T12:51:06;35.50;1.00
14699;DHT22;7439;50.804;4.602;2022-07-12T12:53:34;34.80;1.00
14699;DHT22;7439;50.804;4.602;2022-07-12T12:56:06;34.20;1.00
14699;DHT22;7439;50.804;4.602;2022-07-12T12:58:34;33.50;1.00
14699;DHT22;7439;50.804;4.602;2022-07-12T13:01:01;34.20;1.00
14699;DHT22;7439;50.804;4.602;2022-07-12T13:03:28;35.20;1.00
14699;DHT22;7439;50.804;4.602;2022-07-12T13:05:55;36.00;1.00
14699;DHT22;7439;50.804;4.602;2022-07-12T13:08:25;36.70;1.00
14699;DHT22;7439;50.804;4.602;2022-07-12T13:10:53;36.60;1.00
14699;DHT22;7439;50.804;4.602;2022-07-12T13:13:35;36.20;1.00
14699;DHT22;7439;50.804;4.602;2022-07-12T13:16:02;36.50;1.00
14699;DHT22;7439;50.804;4.602;2022-07-12T13:18:29;37.10;1.00
14699;DHT22;7439;50.804;4.602;2022-07-12T13:20:56;37.60;1.00
14699;DHT22;7439;50.804;4.602;2022-07-12T13:23:25;38.00;1.00
14699;DHT22;7439;50.804;4.602;2022-07-12T13:25:52;37.70;1.00
14699;DHT22;7439;50.804;4.602;2022-07-12T13:28:19;37.50;1.00
14699;DHT22;7439;50.804;4.602;2022-07-12T13:30:46;37.40;1.00
14699;DHT22;7439;50.804;4.602;2022-07-12T13:33:13;37.50;1.00
14699;DHT22;7439;50.804;4.602;2022-07-12T13:35:41;37.60;1.00
14699;DHT22;7439;50.804;4.602;2022-07-12T13:38:08;37.40;1.00
14699;DHT22;7439;50.804;4.602;2022-07-12T13:40:37;37.10;1.00
14699;DHT22;7439;50.804;4.602;2022-07-12T13:43:04;36.40;1.00
14699;DHT22;7439;50.804;4.602;2022-07-12T13:45:31;35.90;1.00
14699;DHT22;7439;50.804;4.602;2022-07-12T13:48:00;34.70;1.00
14699;DHT22;7439;50.804;4.602;2022-07-12T13:50:28;33.90;1.00
14699;DHT22;7439;50.804;4.602;2022-07-12T13:52:55;34.00;1.00
14699;DHT22;7439;50.804;4.602;2022-07-12T13:55:22;34.10;1.00
14699;DHT22;7439;50.804;4.602;2022-07-12T13:57:50;34.40;1.00
14699;DHT22;7439;50.804;4.602;2022-07-12T14:00:17;34.80;1.00
14699;DHT22;7439;50.804;4.602;2022-07-12T14:02:46;34.90;1.00
14699;DHT22;7439;50.804;4.602;2022-07-12T14:05:14;35.20;1.00
14699;DHT22;7439;50.804;4.602;2022-07-12T14:07:42;35.60;1.00
14699;DHT22;7439;50.804;4.602;2022-07-12T14:10:10;35.20;1.00
14699;DHT22;7439;50.804;4.602;2022-07-12T14:12:38;34.90;1.00
14699;DHT22;7439;50.804;4.602;2022-07-12T14:15:08;34.60;1.00
14699;DHT22;7439;50.804;4.602;2022-07-12T14:17:46;34.00;1.00
14699;DHT22;7439;50.804;4.602;2022-07-12T14:20:16;33.10;1.00
14699;DHT22;7439;50.804;4.602;2022-07-12T14:22:44;32.60;1.00
14699;DHT22;7439;50.804;4.602;2022-07-12T14:25:12;32.50;1.00
14699;DHT22;7439;50.804;4.602;2022-07-12T14:27:41;31.90;1.00
14699;DHT22;7439;50.804;4.602;2022-07-12T14:30:11;31.90;1.00
14699;DHT22;7439;50.804;4.602;2022-07-12T14:32:39;31.90;1.00
14699;DHT22;7439;50.804;4.602;2022-07-12T14:35:07;31.40;1.00
14699;DHT22;7439;50.804;4.602;2022-07-12T14:37:34;31.00;1.00
14699;DHT22;7439;50.804;4.602;2022-07-12T14:40:02;30.70;1.00
14699;DHT22;7439;50.804;4.602;2022-07-12T14:42:29;30.50;1.00
14699;DHT22;7439;50.804;4.602;2022-07-12T14:44:56;30.40;1.00
14699;DHT22;7439;50.804;4.602;2022-07-12T14:47:25;30.10;1.00
14699;DHT22;7439;50.804;4.602;2022-07-12T14:49:52;29.90;1.00
14699;DHT22;7439;50.804;4.602;2022-07-12T14:52:20;29.80;1.00
14699;DHT22;7439;50.804;4.602;2022-07-12T14:54:47;29.80;1.00
14699;DHT22;7439;50.804;4.602;2022-07-12T14:57:16;29.90;1.00
14699;DHT22;7439;50.804;4.602;2022-07-12T14:59:43;29.80;1.00
14699;DHT22;7439;50.804;4.602;2022-07-12T15:02:10;29.80;1.00
14699;DHT22;7439;50.804;4.602;2022-07-12T15:04:38;29.70;1.00
14699;DHT22;7439;50.804;4.602;2022-07-12T15:07:05;29.70;1.00
14699;DHT22;7439;50.804;4.602;2022-07-12T15:09:33;29.70;1.00
14699;DHT22;7439;50.804;4.602;2022-07-12T15:12:00;29.80;1.00
14699;DHT22;7439;50.804;4.602;2022-07-12T15:14:27;29.80;1.00
14699;DHT22;7439;50.804;4.602;2022-07-12T15:16:54;29.70;1.00
14699;DHT22;7439;50.804;4.602;2022-07-12T15:19:21;29.60;1.00
14699;DHT22;7439;50.804;4.602;2022-07-12T15:21:50;29.60;1.00
14699;DHT22;7439;50.804;4.602;2022-07-12T15:24:17;29.60;1.00
14699;DHT22;7439;50.804;4.602;2022-07-12T15:26:44;29.60;1.00
14699;DHT22;7439;50.804;4.602;2022-07-12T15:29:11;29.70;1.00
14699;DHT22;7439;50.804;4.602;2022-07-12T15:31:38;29.80;1.00
14699;DHT22;7439;50.804;4.602;2022-07-12T15:34:06;29.90;1.00
14699;DHT22;7439;50.804;4.602;2022-07-12T15:36:33;30.00;1.00
14699;DHT22;7439;50.804;4.602;2022-07-12T15:39:02;30.10;1.00
14699;DHT22;7439;50.804;4.602;2022-07-12T15:41:29;30.20;1.00
14699;DHT22;7439;50.804;4.602;2022-07-12T15:43:56;30.40;1.00
14699;DHT22;7439;50.804;4.602;2022-07-12T15:46:24;30.30;1.00
14699;DHT22;7439;50.804;4.602;2022-07-12T15:48:51;30.10;1.00
14699;DHT22;7439;50.804;4.602;2022-07-12T15:51:19;30.00;1.00
14699;DHT22;7439;50.804;4.602;2022-07-12T15:54:07;29.90;1.00
14699;DHT22;7439;50.804;4.602;2022-07-12T15:56:33;30.10;1.00
14699;DHT22;7439;50.804;4.602;2022-07-12T15:59:00;30.20;1.00
14699;DHT22;7439;50.804;4.602;2022-07-12T16:01:28;30.10;1.00
14699;DHT22;7439;50.804;4.602;2022-07-12T16:03:54;29.90;1.00
14699;DHT22;7439;50.804;4.602;2022-07-12T16:06:22;29.70;1.00